sensor_id;sensor_type;location;lat;lon;timestamp;temperature;humidity
62575;DHT22;53112;45.602;11.904;2022-11-23T00:03:44;12.20;72.00
62575;DHT22;53112;45.602;11.904;2022-11-23T00:06:11;12.10;72.00
62575;DHT22;53112;45.602;11.904;2022-11-23T00:08:37;12.10;72.00
62575;DHT22;53112;45.602;11.904;2022-11-23T00:11:03;12.10;71.60
62575;DHT22;53112;45.602;11.904;2022-11-23T00:13:30;12.00;72.20
62575;DHT22;53112;45.602;11.904;2022-11-23T00:15:56;11.90;72.50
62575;DHT22;53112;45.602;11.904;2022-11-23T00:18:22;11.80;73.60
62575;DHT22;53112;45.602;11.904;2022-11-23T00:20:48;11.80;73.00
62575;DHT22;53112;45.602;11.904;2022-11-23T00:23:14;11.90;72.60
62575;DHT22;53112;45.602;11.904;2022-11-23T00:25:44;11.90;72.40
62575;DHT22;53112;45.602;11.904;2022-11-23T00:28:11;11.90;72.40
62575;DHT22;53112;45.602;11.904;2022-11-23T00:30:37;12.00;71.80
62575;DHT22;53112;45.602;11.904;2022-11-23T00:33:03;12.00;72.10
62575;DHT22;53112;45.602;11.904;2022-11-23T00:35:30;12.10;72.00
62575;DHT22;53112;45.602;11.904;2022-11-23T00:37:56;12.30;71.20
62575;DHT22;53112;45.602;11.904;2022-11-23T00:40:22;12.20;71.70
62575;DHT22;53112;45.602;11.904;2022-11-23T00:42:48;12.20;71.70
62575;DHT22;53112;45.602;11.904;2022-11-23T00:45:14;12.20;71.50
62575;DHT22;53112;45.602;11.904;2022-11-23T00:47:40;12.20;71.60
62575;DHT22;53112;45.602;11.904;2022-11-23T00:50:06;12.20;71.50
62575;DHT22;53112;45.602;11.904;2022-11-23T00:52:32;12.20;71.70
62575;DHT22;53112;45.602;11.904;2022-11-23T00:54:58;12.20;71.50
62575;DHT22;53112;45.602;11.904;2022-11-23T00:57:24;12.10;71.60
62575;DHT22;53112;45.602;11.904;2022-11-23T00:59:50;12.20;71.60
62575;DHT22;53112;45.602;11.904;2022-11-23T01:02:16;12.20;71.90
62575;DHT22;53112;45.602;11.904;2022-11-23T01:04:42;12.20;71.60
62575;DHT22;53112;45.602;11.904;2022-11-23T01:07:08;12.20;71.10
62575;DHT22;53112;45.602;11.904;2022-11-23T01:09:34;12.10;71.30
62575;DHT22;53112;45.602;11.904;2022-11-23T01:12:00;12.20;71.10
62575;DHT22;53112;45.602;11.904;2022-11-23T01:14:26;12.20;71.40
62575;DHT22;53112;45.602;11.904;2022-11-23T01:16:52;12.20;71.10
62575;DHT22;53112;45.602;11.904;2022-11-23T01:19:19;12.10;71.30
62575;DHT22;53112;45.602;11.904;2022-11-23T01:21:45;11.70;72.70
62575;DHT22;53112;45.602;11.904;2022-11-23T01:24:15;11.40;73.60
62575;DHT22;53112;45.602;11.904;2022-11-23T01:26:42;11.50;74.00
62575;DHT22;53112;45.602;11.904;2022-11-23T01:29:10;11.70;73.30
62575;DHT22;53112;45.602;11.904;2022-11-23T01:31:37;11.80;73.00
62575;DHT22;53112;45.602;11.904;2022-11-23T01:34:03;11.80;72.50
62575;DHT22;53112;45.602;11.904;2022-11-23T01:36:31;11.30;73.70
62575;DHT22;53112;45.602;11.904;2022-11-23T01:38:59;11.30;74.20
62575;DHT22;53112;45.602;11.904;2022-11-23T01:41:34;11.10;74.70
62575;DHT22;53112;45.602;11.904;2022-11-23T01:44:30;10.90;75.80
62575;DHT22;53112;45.602;11.904;2022-11-23T01:46:59;10.60;76.80
62575;DHT22;53112;45.602;11.904;2022-11-23T01:49:47;10.90;75.90
62575;DHT22;53112;45.602;11.904;2022-11-23T01:52:25;11.10;74.90
62575;DHT22;53112;45.602;11.904;2022-11-23T01:54:57;10.90;75.40
62575;DHT22;53112;45.602;11.904;2022-11-23T01:57:32;10.70;76.30
62575;DHT22;53112;45.602;11.904;2022-11-23T02:00:01;10.70;76.30
62575;DHT22;53112;45.602;11.904;2022-11-23T02:02:29;10.70;76.40
62575;DHT22;53112;45.602;11.904;2022-11-23T02:04:58;10.60;76.80
62575;DHT22;53112;45.602;11.904;2022-11-23T02:07:25;10.60;76.80
62575;DHT22;53112;45.602;11.904;2022-11-23T02:09:53;10.60;76.60
62575;DHT22;53112;45.602;11.904;2022-11-23T02:12:19;10.60;76.70
62575;DHT22;53112;45.602;11.904;2022-11-23T02:14:45;10.60;76.60
62575;DHT22;53112;45.602;11.904;2022-11-23T02:17:12;10.60;76.50
62575;DHT22;53112;45.602;11.904;2022-11-23T02:22:32;10.70;76.30
62575;DHT22;53112;45.602;11.904;2022-11-23T02:25:06;10.60;76.50
62575;DHT22;53112;45.602;11.904;2022-11-23T02:27:34;10.70;76.70
62575;DHT22;53112;45.602;11.904;2022-11-23T02:30:01;10.60;77.00
62575;DHT22;53112;45.602;11.904;2022-11-23T02:32:28;10.70;76.70
62575;DHT22;53112;45.602;11.904;2022-11-23T02:34:55;10.80;76.30
62575;DHT22;53112;45.602;11.904;2022-11-23T02:37:21;10.80;76.20
62575;DHT22;53112;45.602;11.904;2022-11-23T02:39:51;10.80;76.00
62575;DHT22;53112;45.602;11.904;2022-11-23T02:42:18;10.80;75.90
62575;DHT22;53112;45.602;11.904;2022-11-23T02:45:00;10.80;76.10
62575;DHT22;53112;45.602;11.904;2022-11-23T02:47:30;10.80;76.20
62575;DHT22;53112;45.602;11.904;2022-11-23T02:49:56;10.90;75.90
62575;DHT22;53112;45.602;11.904;2022-11-23T02:52:22;10.90;76.10
62575;DHT22;53112;45.602;11.904;2022-11-23T02:54:48;11.00;75.50
62575;DHT22;53112;45.602;11.904;2022-11-23T02:57:14;11.00;75.50
62575;DHT22;53112;45.602;11.904;2022-11-23T02:59:40;11.10;75.10
62575;DHT22;53112;45.602;11.904;2022-11-23T03:02:06;11.00;75.20
62575;DHT22;53112;45.602;11.904;2022-11-23T03:04:32;10.90;75.60
62575;DHT22;53112;45.602;11.904;2022-11-23T03:06:58;10.90;75.60
62575;DHT22;53112;45.602;11.904;2022-11-23T03:09:24;10.90;75.40
62575;DHT22;53112;45.602;11.904;2022-11-23T03:14:20;10.80;76.00
62575;DHT22;53112;45.602;11.904;2022-11-23T03:16:46;10.80;76.00
62575;DHT22;53112;45.602;11.904;2022-11-23T03:19:12;10.80;76.00
62575;DHT22;53112;45.602;11.904;2022-11-23T03:21:38;10.80;75.90
62575;DHT22;53112;45.602;11.904;2022-11-23T03:24:04;10.90;75.70
62575;DHT22;53112;45.602;11.904;2022-11-23T03:26:30;10.90;75.40
62575;DHT22;53112;45.602;11.904;2022-11-23T03:28:56;11.00;75.40
62575;DHT22;53112;45.602;11.904;2022-11-23T03:31:21;11.10;74.90
62575;DHT22;53112;45.602;11.904;2022-11-23T03:33:47;11.20;74.60
62575;DHT22;53112;45.602;11.904;2022-11-23T03:36:13;11.20;73.90
62575;DHT22;53112;45.602;11.904;2022-11-23T03:38:39;10.90;74.90
62575;DHT22;53112;45.602;11.904;2022-11-23T03:41:05;10.70;75.70
62575;DHT22;53112;45.602;11.904;2022-11-23T03:43:31;10.70;75.90
62575;DHT22;53112;45.602;11.904;2022-11-23T03:45:57;10.80;75.90
62575;DHT22;53112;45.602;11.904;2022-11-23T03:48:22;10.80;75.50
62575;DHT22;53112;45.602;11.904;2022-11-23T03:50:48;10.80;75.70
62575;DHT22;53112;45.602;11.904;2022-11-23T03:53:14;10.80;75.80
62575;DHT22;53112;45.602;11.904;2022-11-23T03:55:40;10.80;75.70
62575;DHT22;53112;45.602;11.904;2022-11-23T03:58:06;10.90;75.50
62575;DHT22;53112;45.602;11.904;2022-11-23T04:00:32;10.80;75.40
62575;DHT22;53112;45.602;11.904;2022-11-23T04:02:58;10.80;75.60
62575;DHT22;53112;45.602;11.904;2022-11-23T04:05:24;10.80;75.70
62575;DHT22;53112;45.602;11.904;2022-11-23T04:07:50;10.80;75.90
62575;DHT22;53112;45.602;11.904;2022-11-23T04:10:18;10.80;75.60
62575;DHT22;53112;45.602;11.904;2022-11-23T04:12:44;10.70;75.80
62575;DHT22;53112;45.602;11.904;2022-11-23T04:15:11;10.60;76.00
62575;DHT22;53112;45.602;11.904;2022-11-23T04:17:37;10.70;75.90
62575;DHT22;53112;45.602;11.904;2022-11-23T04:20:03;10.90;75.20
62575;DHT22;53112;45.602;11.904;2022-11-23T04:22:30;10.80;75.10
62575;DHT22;53112;45.602;11.904;2022-11-23T04:24:56;10.80;75.40
62575;DHT22;53112;45.602;11.904;2022-11-23T04:27:22;10.70;75.70
62575;DHT22;53112;45.602;11.904;2022-11-23T04:29:48;10.70;75.80
62575;DHT22;53112;45.602;11.904;2022-11-23T04:32:14;10.90;75.30
62575;DHT22;53112;45.602;11.904;2022-11-23T04:34:40;10.70;75.50
62575;DHT22;53112;45.602;11.904;2022-11-23T04:37:06;10.80;75.30
62575;DHT22;53112;45.602;11.904;2022-11-23T04:39:31;10.70;75.50
62575;DHT22;53112;45.602;11.904;2022-11-23T04:41:57;10.80;75.20
62575;DHT22;53112;45.602;11.904;2022-11-23T04:44:23;10.90;74.40
62575;DHT22;53112;45.602;11.904;2022-11-23T04:46:49;10.90;74.30
62575;DHT22;53112;45.602;11.904;2022-11-23T04:49:16;10.70;74.90
62575;DHT22;53112;45.602;11.904;2022-11-23T04:51:42;10.80;74.80
62575;DHT22;53112;45.602;11.904;2022-11-23T04:54:08;10.90;74.90
62575;DHT22;53112;45.602;11.904;2022-11-23T04:56:34;10.80;74.30
62575;DHT22;53112;45.602;11.904;2022-11-23T04:59:00;10.80;74.60
62575;DHT22;53112;45.602;11.904;2022-11-23T05:01:26;10.90;74.10
62575;DHT22;53112;45.602;11.904;2022-11-23T05:03:52;10.90;73.60
62575;DHT22;53112;45.602;11.904;2022-11-23T05:06:18;10.90;73.80
62575;DHT22;53112;45.602;11.904;2022-11-23T05:08:44;11.00;73.50
62575;DHT22;53112;45.602;11.904;2022-11-23T05:11:10;10.60;74.40
62575;DHT22;53112;45.602;11.904;2022-11-23T05:13:35;10.40;75.50
62575;DHT22;53112;45.602;11.904;2022-11-23T05:16:01;10.40;75.70
62575;DHT22;53112;45.602;11.904;2022-11-23T05:18:27;10.50;75.50
62575;DHT22;53112;45.602;11.904;2022-11-23T05:20:53;10.60;74.80
62575;DHT22;53112;45.602;11.904;2022-11-23T05:23:19;10.70;74.30
62575;DHT22;53112;45.602;11.904;2022-11-23T05:25:45;10.80;74.10
62575;DHT22;53112;45.602;11.904;2022-11-23T05:28:18;10.70;74.20
62575;DHT22;53112;45.602;11.904;2022-11-23T05:30:44;10.80;74.20
62575;DHT22;53112;45.602;11.904;2022-11-23T05:33:11;10.80;74.10
62575;DHT22;53112;45.602;11.904;2022-11-23T05:35:37;10.80;74.20
62575;DHT22;53112;45.602;11.904;2022-11-23T05:38:03;10.80;74.10
62575;DHT22;53112;45.602;11.904;2022-11-23T05:40:29;10.80;73.90
62575;DHT22;53112;45.602;11.904;2022-11-23T05:42:57;10.80;74.00
62575;DHT22;53112;45.602;11.904;2022-11-23T05:45:23;10.50;74.90
62575;DHT22;53112;45.602;11.904;2022-11-23T05:47:54;10.30;76.10
62575;DHT22;53112;45.602;11.904;2022-11-23T05:50:21;10.30;76.20
62575;DHT22;53112;45.602;11.904;2022-11-23T05:52:48;10.20;76.50
62575;DHT22;53112;45.602;11.904;2022-11-23T05:55:14;10.20;76.50
62575;DHT22;53112;45.602;11.904;2022-11-23T05:57:41;10.30;76.10
62575;DHT22;53112;45.602;11.904;2022-11-23T06:00:08;10.30;75.80
62575;DHT22;53112;45.602;11.904;2022-11-23T06:02:38;10.30;75.60
62575;DHT22;53112;45.602;11.904;2022-11-23T06:05:04;10.50;74.70
62575;DHT22;53112;45.602;11.904;2022-11-23T06:07:33;10.30;75.10
62575;DHT22;53112;45.602;11.904;2022-11-23T06:10:00;10.40;74.40
62575;DHT22;53112;45.602;11.904;2022-11-23T06:12:27;10.20;74.90
62575;DHT22;53112;45.602;11.904;2022-11-23T06:14:54;10.20;75.50
62575;DHT22;53112;45.602;11.904;2022-11-23T06:17:19;10.30;74.60
62575;DHT22;53112;45.602;11.904;2022-11-23T06:19:45;10.30;74.00
62575;DHT22;53112;45.602;11.904;2022-11-23T06:22:41;9.70;74.30
62575;DHT22;53112;45.602;11.904;2022-11-23T06:25:07;10.20;74.00
62575;DHT22;53112;45.602;11.904;2022-11-23T06:27:32;10.10;73.40
62575;DHT22;53112;45.602;11.904;2022-11-23T06:29:58;9.90;74.20
62575;DHT22;53112;45.602;11.904;2022-11-23T06:32:24;9.90;74.50
62575;DHT22;53112;45.602;11.904;2022-11-23T06:34:50;9.80;74.80
62575;DHT22;53112;45.602;11.904;2022-11-23T06:37:16;9.80;75.10
62575;DHT22;53112;45.602;11.904;2022-11-23T06:39:41;9.90;74.40
62575;DHT22;53112;45.602;11.904;2022-11-23T06:42:08;10.00;74.00
62575;DHT22;53112;45.602;11.904;2022-11-23T06:44:33;10.00;73.70
62575;DHT22;53112;45.602;11.904;2022-11-23T06:46:59;10.00;73.40
62575;DHT22;53112;45.602;11.904;2022-11-23T06:49:25;9.60;75.50
62575;DHT22;53112;45.602;11.904;2022-11-23T06:51:53;9.60;76.20
62575;DHT22;53112;45.602;11.904;2022-11-23T06:54:19;9.70;76.00
62575;DHT22;53112;45.602;11.904;2022-11-23T06:56:44;9.70;76.10
62575;DHT22;53112;45.602;11.904;2022-11-23T06:59:10;9.70;76.50
62575;DHT22;53112;45.602;11.904;2022-11-23T07:01:36;9.70;76.00
62575;DHT22;53112;45.602;11.904;2022-11-23T07:04:02;9.90;75.80
62575;DHT22;53112;45.602;11.904;2022-11-23T07:06:28;9.90;75.80
62575;DHT22;53112;45.602;11.904;2022-11-23T07:08:54;9.90;75.50
62575;DHT22;53112;45.602;11.904;2022-11-23T07:11:20;10.00;75.50
62575;DHT22;53112;45.602;11.904;2022-11-23T07:13:46;10.10;75.50
62575;DHT22;53112;45.602;11.904;2022-11-23T07:16:12;10.10;75.50
62575;DHT22;53112;45.602;11.904;2022-11-23T07:18:39;10.20;75.30
62575;DHT22;53112;45.602;11.904;2022-11-23T07:21:05;10.30;75.10
62575;DHT22;53112;45.602;11.904;2022-11-23T07:23:30;10.50;74.90
62575;DHT22;53112;45.602;11.904;2022-11-23T07:25:56;10.50;74.50
62575;DHT22;53112;45.602;11.904;2022-11-23T07:28:22;10.50;74.60
62575;DHT22;53112;45.602;11.904;2022-11-23T07:30:49;10.50;74.70
62575;DHT22;53112;45.602;11.904;2022-11-23T07:33:16;10.60;74.30
62575;DHT22;53112;45.602;11.904;2022-11-23T07:35:42;10.60;74.30
62575;DHT22;53112;45.602;11.904;2022-11-23T07:38:08;10.80;74.00
62575;DHT22;53112;45.602;11.904;2022-11-23T07:40:38;10.80;73.50
62575;DHT22;53112;45.602;11.904;2022-11-23T07:43:05;11.00;73.40
62575;DHT22;53112;45.602;11.904;2022-11-23T07:45:31;10.90;73.50
62575;DHT22;53112;45.602;11.904;2022-11-23T07:48:06;11.20;73.20
62575;DHT22;53112;45.602;11.904;2022-11-23T07:50:34;11.30;72.70
62575;DHT22;53112;45.602;11.904;2022-11-23T07:53:05;11.40;72.50
62575;DHT22;53112;45.602;11.904;2022-11-23T07:55:31;11.50;72.00
62575;DHT22;53112;45.602;11.904;2022-11-23T07:57:58;11.60;71.40
62575;DHT22;53112;45.602;11.904;2022-11-23T08:00:26;11.50;71.40
62575;DHT22;53112;45.602;11.904;2022-11-23T08:02:52;11.70;70.70
62575;DHT22;53112;45.602;11.904;2022-11-23T08:05:18;11.70;70.00
62575;DHT22;53112;45.602;11.904;2022-11-23T08:07:45;11.60;70.80
62575;DHT22;53112;45.602;11.904;2022-11-23T08:10:12;11.70;69.70
62575;DHT22;53112;45.602;11.904;2022-11-23T08:12:38;11.60;70.90
62575;DHT22;53112;45.602;11.904;2022-11-23T08:15:05;11.80;70.20
62575;DHT22;53112;45.602;11.904;2022-11-23T08:17:32;11.60;70.10
62575;DHT22;53112;45.602;11.904;2022-11-23T08:19:58;11.70;69.40
62575;DHT22;53112;45.602;11.904;2022-11-23T08:22:24;11.80;68.50
62575;DHT22;53112;45.602;11.904;2022-11-23T08:24:51;12.10;68.40
62575;DHT22;53112;45.602;11.904;2022-11-23T08:27:17;12.40;68.00
62575;DHT22;53112;45.602;11.904;2022-11-23T08:29:44;12.60;67.30
62575;DHT22;53112;45.602;11.904;2022-11-23T08:32:11;12.70;65.70
62575;DHT22;53112;45.602;11.904;2022-11-23T08:34:37;13.00;65.60
62575;DHT22;53112;45.602;11.904;2022-11-23T08:37:03;13.20;64.00
62575;DHT22;53112;45.602;11.904;2022-11-23T08:39:29;13.20;63.70
62575;DHT22;53112;45.602;11.904;2022-11-23T08:41:55;13.60;64.00
62575;DHT22;53112;45.602;11.904;2022-11-23T08:44:21;14.00;63.00
62575;DHT22;53112;45.602;11.904;2022-11-23T08:46:47;14.20;62.30
62575;DHT22;53112;45.602;11.904;2022-11-23T08:49:12;14.80;64.20
62575;DHT22;53112;45.602;11.904;2022-11-23T08:51:38;15.80;59.60
62575;DHT22;53112;45.602;11.904;2022-11-23T08:54:04;16.10;58.30
62575;DHT22;53112;45.602;11.904;2022-11-23T08:56:30;15.40;57.00
62575;DHT22;53112;45.602;11.904;2022-11-23T08:58:56;14.90;59.30
62575;DHT22;53112;45.602;11.904;2022-11-23T09:01:22;14.50;61.00
62575;DHT22;53112;45.602;11.904;2022-11-23T09:03:48;14.60;61.50
62575;DHT22;53112;45.602;11.904;2022-11-23T09:06:14;14.70;60.70
62575;DHT22;53112;45.602;11.904;2022-11-23T09:08:40;14.40;61.30
62575;DHT22;53112;45.602;11.904;2022-11-23T09:11:08;14.30;61.50
62575;DHT22;53112;45.602;11.904;2022-11-23T09:13:36;14.20;61.10
62575;DHT22;53112;45.602;11.904;2022-11-23T09:16:03;14.40;60.50
62575;DHT22;53112;45.602;11.904;2022-11-23T09:18:30;14.90;59.50
62575;DHT22;53112;45.602;11.904;2022-11-23T09:20:57;14.70;58.60
62575;DHT22;53112;45.602;11.904;2022-11-23T09:23:23;15.00;57.90
62575;DHT22;53112;45.602;11.904;2022-11-23T09:25:51;15.10;56.50
62575;DHT22;53112;45.602;11.904;2022-11-23T09:28:17;15.70;57.80
62575;DHT22;53112;45.602;11.904;2022-11-23T09:30:49;15.30;56.00
62575;DHT22;53112;45.602;11.904;2022-11-23T09:33:15;15.40;55.70
62575;DHT22;53112;45.602;11.904;2022-11-23T09:35:41;15.20;55.80
62575;DHT22;53112;45.602;11.904;2022-11-23T09:38:07;15.30;55.70
62575;DHT22;53112;45.602;11.904;2022-11-23T09:40:37;15.40;55.10
62575;DHT22;53112;45.602;11.904;2022-11-23T09:43:29;15.90;55.20
62575;DHT22;53112;45.602;11.904;2022-11-23T09:46:03;16.20;54.40
62575;DHT22;53112;45.602;11.904;2022-11-23T09:51:25;17.10;51.90
62575;DHT22;53112;45.602;11.904;2022-11-23T09:54:09;16.90;51.80
62575;DHT22;53112;45.602;11.904;2022-11-23T09:56:38;16.90;51.00
62575;DHT22;53112;45.602;11.904;2022-11-23T09:59:35;17.70;50.70
62575;DHT22;53112;45.602;11.904;2022-11-23T10:02:03;17.30;51.20
62575;DHT22;53112;45.602;11.904;2022-11-23T10:04:34;17.40;51.80
62575;DHT22;53112;45.602;11.904;2022-11-23T10:07:29;17.50;50.30
62575;DHT22;53112;45.602;11.904;2022-11-23T10:09:59;17.70;50.00
62575;DHT22;53112;45.602;11.904;2022-11-23T10:23:21;17.50;50.10
62575;DHT22;53112;45.602;11.904;2022-11-23T10:25:52;17.20;49.70
62575;DHT22;53112;45.602;11.904;2022-11-23T10:28:21;17.20;50.80
62575;DHT22;53112;45.602;11.904;2022-11-23T10:31:06;17.10;49.80
62575;DHT22;53112;45.602;11.904;2022-11-23T10:33:59;17.30;49.30
62575;DHT22;53112;45.602;11.904;2022-11-23T10:36:27;17.20;50.10
62575;DHT22;53112;45.602;11.904;2022-11-23T10:38:57;17.50;49.00
62575;DHT22;53112;45.602;11.904;2022-11-23T10:41:25;17.90;48.70
62575;DHT22;53112;45.602;11.904;2022-11-23T10:44:04;18.50;47.30
62575;DHT22;53112;45.602;11.904;2022-11-23T10:49:33;19.80;44.30
62575;DHT22;53112;45.602;11.904;2022-11-23T10:54:46;20.60;44.10
62575;DHT22;53112;45.602;11.904;2022-11-23T10:59:59;21.40;40.00
62575;DHT22;53112;45.602;11.904;2022-11-23T11:02:25;21.60;40.60
62575;DHT22;53112;45.602;11.904;2022-11-23T11:05:25;22.20;40.70
62575;DHT22;53112;45.602;11.904;2022-11-23T11:07:52;22.60;39.30
62575;DHT22;53112;45.602;11.904;2022-11-23T11:10:38;22.30;37.00
62575;DHT22;53112;45.602;11.904;2022-11-23T11:13:21;23.20;38.10
62575;DHT22;53112;45.602;11.904;2022-11-23T11:18:22;22.90;36.20
62575;DHT22;53112;45.602;11.904;2022-11-23T11:20:57;23.70;36.70
62575;DHT22;53112;45.602;11.904;2022-11-23T11:23:24;23.90;37.10
62575;DHT22;53112;45.602;11.904;2022-11-23T11:26:02;23.90;34.60
62575;DHT22;53112;45.602;11.904;2022-11-23T11:28:39;24.80;35.40
62575;DHT22;53112;45.602;11.904;2022-11-23T11:33:41;24.80;35.90
62575;DHT22;53112;45.602;11.904;2022-11-23T11:36:11;24.10;33.00
62575;DHT22;53112;45.602;11.904;2022-11-23T11:38:40;24.70;33.70
62575;DHT22;53112;45.602;11.904;2022-11-23T11:41:11;23.70;35.20
62575;DHT22;53112;45.602;11.904;2022-11-23T11:43:43;23.70;35.90
62575;DHT22;53112;45.602;11.904;2022-11-23T11:46:22;24.60;33.90
62575;DHT22;53112;45.602;11.904;2022-11-23T11:48:53;25.00;34.80
62575;DHT22;53112;45.602;11.904;2022-11-23T11:56:37;25.30;33.00
62575;DHT22;53112;45.602;11.904;2022-11-23T12:04:56;23.60;32.80
62575;DHT22;53112;45.602;11.904;2022-11-23T12:07:36;23.20;31.00
62575;DHT22;53112;45.602;11.904;2022-11-23T12:12:54;23.70;32.20
62575;DHT22;53112;45.602;11.904;2022-11-23T12:15:36;24.30;33.20
62575;DHT22;53112;45.602;11.904;2022-11-23T12:23:30;23.20;31.60
62575;DHT22;53112;45.602;11.904;2022-11-23T12:26:17;22.20;33.90
62575;DHT22;53112;45.602;11.904;2022-11-23T12:29:13;22.10;34.30
62575;DHT22;53112;45.602;11.904;2022-11-23T12:32:03;22.80;33.40
62575;DHT22;53112;45.602;11.904;2022-11-23T12:34:50;23.80;31.80
62575;DHT22;53112;45.602;11.904;2022-11-23T12:40:41;25.10;29.50
62575;DHT22;53112;45.602;11.904;2022-11-23T12:43:12;26.10;28.90
62575;DHT22;53112;45.602;11.904;2022-11-23T12:46:05;27.00;28.10
62575;DHT22;53112;45.602;11.904;2022-11-23T12:51:18;28.00;26.40
62575;DHT22;53112;45.602;11.904;2022-11-23T12:59:55;25.60;29.40
62575;DHT22;53112;45.602;11.904;2022-11-23T13:10:19;23.60;32.20
62575;DHT22;53112;45.602;11.904;2022-11-23T13:24:00;30.80;21.90
62575;DHT22;53112;45.602;11.904;2022-11-23T13:26:28;31.20;22.50
62575;DHT22;53112;45.602;11.904;2022-11-23T13:28:56;31.50;21.80
62575;DHT22;53112;45.602;11.904;2022-11-23T13:31:29;31.40;22.50
62575;DHT22;53112;45.602;11.904;2022-11-23T13:34:06;31.70;22.00
62575;DHT22;53112;45.602;11.904;2022-11-23T13:36:59;32.50;21.20
62575;DHT22;53112;45.602;11.904;2022-11-23T13:42:12;30.60;21.50
62575;DHT22;53112;45.602;11.904;2022-11-23T13:44:39;31.50;21.70
62575;DHT22;53112;45.602;11.904;2022-11-23T13:49:43;32.80;20.60
62575;DHT22;53112;45.602;11.904;2022-11-23T13:55:17;34.10;19.30
62575;DHT22;53112;45.602;11.904;2022-11-23T14:08:39;33.40;20.50
62575;DHT22;53112;45.602;11.904;2022-11-23T14:11:18;33.20;21.10
62575;DHT22;53112;45.602;11.904;2022-11-23T14:13:59;33.70;20.70
62575;DHT22;53112;45.602;11.904;2022-11-23T14:16:41;34.00;19.80
62575;DHT22;53112;45.602;11.904;2022-11-23T14:33:43;31.50;21.20
62575;DHT22;53112;45.602;11.904;2022-11-23T14:41:36;31.00;21.50
62575;DHT22;53112;45.602;11.904;2022-11-23T14:44:04;29.50;23.60
62575;DHT22;53112;45.602;11.904;2022-11-23T14:46:30;29.40;24.00
62575;DHT22;53112;45.602;11.904;2022-11-23T14:49:09;25.70;28.10
62575;DHT22;53112;45.602;11.904;2022-11-23T14:51:41;23.60;31.20
62575;DHT22;53112;45.602;11.904;2022-11-23T14:54:09;21.60;34.10
62575;DHT22;53112;45.602;11.904;2022-11-23T14:56:45;20.60;36.80
62575;DHT22;53112;45.602;11.904;2022-11-23T15:04:27;19.60;38.90
62575;DHT22;53112;45.602;11.904;2022-11-23T15:07:16;19.30;39.90
62575;DHT22;53112;45.602;11.904;2022-11-23T15:10:04;19.00;41.40
62575;DHT22;53112;45.602;11.904;2022-11-23T15:12:44;18.60;42.00
62575;DHT22;53112;45.602;11.904;2022-11-23T15:15:23;18.50;42.20
62575;DHT22;53112;45.602;11.904;2022-11-23T15:17:54;18.40;43.20
62575;DHT22;53112;45.602;11.904;2022-11-23T15:20:22;18.30;43.00
62575;DHT22;53112;45.602;11.904;2022-11-23T15:22:50;18.20;43.30
62575;DHT22;53112;45.602;11.904;2022-11-23T15:25:16;18.00;43.70
62575;DHT22;53112;45.602;11.904;2022-11-23T15:27:46;17.70;44.40
62575;DHT22;53112;45.602;11.904;2022-11-23T15:30:24;17.60;44.80
62575;DHT22;53112;45.602;11.904;2022-11-23T15:32:59;17.40;45.40
62575;DHT22;53112;45.602;11.904;2022-11-23T15:35:34;17.10;45.80
62575;DHT22;53112;45.602;11.904;2022-11-23T15:38:01;16.80;46.30
62575;DHT22;53112;45.602;11.904;2022-11-23T15:40:31;16.50;47.40
62575;DHT22;53112;45.602;11.904;2022-11-23T15:42:59;16.20;48.10
62575;DHT22;53112;45.602;11.904;2022-11-23T15:48:11;16.00;48.90
62575;DHT22;53112;45.602;11.904;2022-11-23T15:50:57;15.80;48.50
62575;DHT22;53112;45.602;11.904;2022-11-23T15:53:32;15.60;50.10
62575;DHT22;53112;45.602;11.904;2022-11-23T15:56:03;15.30;50.10
62575;DHT22;53112;45.602;11.904;2022-11-23T15:58:30;14.90;51.40
62575;DHT22;53112;45.602;11.904;2022-11-23T16:01:10;15.00;50.70
62575;DHT22;53112;45.602;11.904;2022-11-23T16:03:57;14.90;51.80
62575;DHT22;53112;45.602;11.904;2022-11-23T16:09:01;14.50;52.50
62575;DHT22;53112;45.602;11.904;2022-11-23T16:11:34;14.30;53.30
62575;DHT22;53112;45.602;11.904;2022-11-23T16:14:25;14.40;52.90
62575;DHT22;53112;45.602;11.904;2022-11-23T16:17:04;14.20;54.00
62575;DHT22;53112;45.602;11.904;2022-11-23T16:19:38;14.20;53.50
62575;DHT22;53112;45.602;11.904;2022-11-23T16:22:06;14.10;53.40
62575;DHT22;53112;45.602;11.904;2022-11-23T16:24:34;14.00;53.10
62575;DHT22;53112;45.602;11.904;2022-11-23T16:27:10;13.80;52.80
62575;DHT22;53112;45.602;11.904;2022-11-23T16:29:37;13.60;54.00
62575;DHT22;53112;45.602;11.904;2022-11-23T16:32:03;13.40;53.90
62575;DHT22;53112;45.602;11.904;2022-11-23T16:34:32;13.30;54.40
62575;DHT22;53112;45.602;11.904;2022-11-23T16:37:00;13.20;54.10
62575;DHT22;53112;45.602;11.904;2022-11-23T16:39:28;13.20;55.10
62575;DHT22;53112;45.602;11.904;2022-11-23T16:41:54;13.00;55.20
62575;DHT22;53112;45.602;11.904;2022-11-23T16:44:20;12.90;56.20
62575;DHT22;53112;45.602;11.904;2022-11-23T16:46:46;12.90;55.50
62575;DHT22;53112;45.602;11.904;2022-11-23T16:49:16;12.90;56.70
62575;DHT22;53112;45.602;11.904;2022-11-23T16:51:43;12.80;56.10
62575;DHT22;53112;45.602;11.904;2022-11-23T16:54:09;12.70;57.60
62575;DHT22;53112;45.602;11.904;2022-11-23T16:56:35;12.50;58.10
62575;DHT22;53112;45.602;11.904;2022-11-23T16:59:02;12.50;56.90
62575;DHT22;53112;45.602;11.904;2022-11-23T17:01:29;12.30;58.50
62575;DHT22;53112;45.602;11.904;2022-11-23T17:03:56;12.30;57.60
62575;DHT22;53112;45.602;11.904;2022-11-23T17:06:21;12.30;57.80
62575;DHT22;53112;45.602;11.904;2022-11-23T17:08:49;12.20;57.90
62575;DHT22;53112;45.602;11.904;2022-11-23T17:11:25;12.20;58.60
62575;DHT22;53112;45.602;11.904;2022-11-23T17:13:53;12.10;58.20
62575;DHT22;53112;45.602;11.904;2022-11-23T17:16:22;12.10;58.20
62575;DHT22;53112;45.602;11.904;2022-11-23T17:18:49;12.00;57.90
62575;DHT22;53112;45.602;11.904;2022-11-23T17:21:15;11.90;57.80
62575;DHT22;53112;45.602;11.904;2022-11-23T17:23:41;11.90;58.50
62575;DHT22;53112;45.602;11.904;2022-11-23T17:28:53;11.30;63.30
62575;DHT22;53112;45.602;11.904;2022-11-23T17:31:19;10.90;65.40
62575;DHT22;53112;45.602;11.904;2022-11-23T17:33:46;11.00;63.90
62575;DHT22;53112;45.602;11.904;2022-11-23T17:36:12;11.00;63.90
62575;DHT22;53112;45.602;11.904;2022-11-23T17:38:38;10.90;65.00
62575;DHT22;53112;45.602;11.904;2022-11-23T17:41:09;10.90;63.80
62575;DHT22;53112;45.602;11.904;2022-11-23T17:43:35;11.10;62.40
62575;DHT22;53112;45.602;11.904;2022-11-23T17:46:01;11.20;61.80
62575;DHT22;53112;45.602;11.904;2022-11-23T17:48:28;11.10;61.90